Time;durP1;ratioP1;P1;durP2;ratioP2;P2;SDS_P1;SDS_P2;PMS_P1;PMS_P2;Temp;Humidity;BMP_temperature;BMP_pressure;BME280_temperature;BME280_humidity;BME280_pressure;Samples;Min_cycle;Max_cycle;Signal;HPM_P1;HPM_P2
2022/05/16 00:01:48;;;;;;;;;;;;;;;24.00;54.41;100932.38;4897749;29;19915;-78
2022/05/16 00:04:38;;;;;;;;;;;;;;;23.85;55.01;100942.72;4891332;29;19915;-78
2022/05/16 00:07:28;;;;;;;;;;;;;;;23.83;54.83;100938.75;4889858;29;19915;-77
2022/05/16 00:10:17;;;;;;;;;;;;;;;23.82;54.95;100937.19;4898671;29;19915;-78
2022/05/16 00:13:07;;;;;;;;;;;;;;;23.75;55.11;100926.88;4883851;29;19941;-79
2022/05/16 00:15:57;;;;;;;;;;;;;;;23.63;55.38;100930.06;4886773;29;19920;-77
2022/05/16 00:18:47;;;;;;;;;;;;;;;23.62;55.17;100936.03;4900361;29;19915;-79
2022/05/16 00:21:37;;;;;;;;;;;;;;;23.58;55.52;100932.44;4895182;29;20378;-79
2022/05/16 00:24:28;;;;;;;;;;;;;;;23.56;55.61;100930.06;4896379;29;19915;-78
2022/05/16 00:27:19;;;;;;;;;;;;;;;23.59;55.37;100939.59;4902817;29;19915;-78
2022/05/16 00:30:10;;;;;;;;;;;;;;;23.61;55.42;100935.22;4896256;29;19915;-79
2022/05/16 00:32:59;;;;;;;;;;;;;;;23.56;55.63;100932.06;4890564;29;19916;-78
2022/05/16 00:35:49;;;;;;;;;;;;;;;23.46;56.00;100930.88;4898042;29;19938;-77
2022/05/16 00:38:39;;;;;;;;;;;;;;;23.38;55.93;100938.38;4910077;29;19915;-78
2022/05/16 00:41:28;;;;;;;;;;;;;;;23.42;56.07;100939.16;4906741;29;19915;-78
2022/05/16 00:44:18;;;;;;;;;;;;;;;23.35;56.52;100939.19;4904667;29;20374;-78
2022/05/16 00:47:08;;;;;;;;;;;;;;;23.44;56.17;100939.56;4900466;29;19919;-77
2022/05/16 00:49:58;;;;;;;;;;;;;;;23.41;56.26;100934.03;4897989;29;19915;-79
2022/05/16 00:52:49;;;;;;;;;;;;;;;23.39;56.34;100944.72;4904250;29;19919;-78
2022/05/16 00:55:39;;;;;;;;;;;;;;;23.27;56.84;100939.56;4898401;29;19919;-79
2022/05/16 00:58:31;;;;;;;;;;;;;;;23.24;56.92;100940.34;4904943;29;20317;-78
2022/05/16 01:07:35;;;;;;;;;;;;;;;23.03;57.48;100925.28;4894679;29;19926;-79
2022/05/16 01:10:24;;;;;;;;;;;;;;;23.16;57.11;100928.44;4908514;29;19920;-79
2022/05/16 01:13:14;;;;;;;;;;;;;;;23.28;56.73;100930.84;4896263;29;20381;-78
2022/05/16 01:16:05;;;;;;;;;;;;;;;23.42;56.40;100932.81;4879239;29;20310;-77
2022/05/16 01:18:55;;;;;;;;;;;;;;;23.57;55.85;100930.88;4882152;29;19915;-79
2022/05/16 01:21:46;;;;;;;;;;;;;;;23.63;55.77;100935.59;4909674;29;19923;-77
2022/05/16 01:24:35;;;;;;;;;;;;;;;23.56;55.75;100932.84;4894452;29;19916;-77
2022/05/16 01:27:25;;;;;;;;;;;;;;;23.63;55.63;100927.28;4902791;29;19914;-78
2022/05/16 01:30:16;;;;;;;;;;;;;;;23.74;55.19;100925.28;4887627;29;19921;-78
2022/05/16 01:33:06;;;;;;;;;;;;;;;23.86;55.01;100924.88;4898875;29;19915;-79
2022/05/16 01:35:56;;;;;;;;;;;;;;;23.91;54.64;100920.09;4898703;29;19919;-75
2022/05/16 01:38:45;;;;;;;;;;;;;;;23.99;54.34;100927.19;4889381;29;19919;-75
2022/05/16 01:41:36;;;;;;;;;;;;;;;24.03;54.10;100920.44;4885372;29;19915;-75
2022/05/16 01:44:25;;;;;;;;;;;;;;;24.04;54.11;100924.00;4894055;29;19915;-75
2022/05/16 01:47:15;;;;;;;;;;;;;;;23.80;54.67;100917.34;4911740;29;19915;-78
2022/05/16 01:50:05;;;;;;;;;;;;;;;23.82;54.72;100926.84;4895125;29;20378;-78
2022/05/16 01:52:55;;;;;;;;;;;;;;;23.83;54.54;100925.66;4898247;29;19915;-78
2022/05/16 01:55:45;;;;;;;;;;;;;;;23.95;54.56;100929.19;4904537;29;19924;-76
2022/05/16 01:58:35;;;;;;;;;;;;;;;24.02;54.30;100924.44;4885553;29;19923;-76
2022/05/16 02:01:24;;;;;;;;;;;;;;;23.99;54.25;100919.66;4884326;29;19920;-77
2022/05/16 02:04:14;;;;;;;;;;;;;;;24.08;53.85;100922.00;4882316;29;19919;-78
2022/05/16 02:07:04;;;;;;;;;;;;;;;24.10;53.83;100925.97;4896196;29;19915;-78
2022/05/16 02:09:53;;;;;;;;;;;;;;;24.01;53.85;100924.81;4894626;29;20397;-78
2022/05/16 02:12:43;;;;;;;;;;;;;;;23.85;54.41;100923.28;4907183;29;20305;-78
2022/05/16 02:15:34;;;;;;;;;;;;;;;23.82;54.63;100915.72;4888785;29;19919;-78
2022/05/16 02:18:23;;;;;;;;;;;;;;;23.83;54.64;100920.09;4885681;29;19915;-78
2022/05/16 02:27:33;;;;;;;;;;;;;;;23.51;55.23;100921.34;4906032;23;19925;-75
2022/05/16 02:30:23;;;;;;;;;;;;;;;23.62;55.14;100920.13;4931796;29;20285;-75
2022/05/16 02:33:15;;;;;;;;;;;;;;;23.69;54.98;100917.34;4927436;29;19914;-75
2022/05/16 02:36:05;;;;;;;;;;;;;;;23.38;55.63;100913.38;4928782;29;20293;-75
2022/05/16 02:38:54;;;;;;;;;;;;;;;23.40;55.22;100921.31;4926308;29;19923;-75
2022/05/16 02:41:44;;;;;;;;;;;;;;;23.32;55.87;100919.72;4933308;29;20382;-75
2022/05/16 02:44:34;;;;;;;;;;;;;;;23.03;56.70;100924.47;4919222;29;19914;-76
2022/05/16 02:47:24;;;;;;;;;;;;;;;22.94;56.99;100916.56;4922670;29;19922;-75
2022/05/16 02:50:14;;;;;;;;;;;;;;;22.94;57.00;100912.97;4922464;29;19948;-75
2022/05/16 02:53:07;;;;;;;;;;;;;;;22.83;57.48;100915.72;4920709;29;20296;-76
2022/05/16 02:55:56;;;;;;;;;;;;;;;22.74;57.42;100922.84;4929161;29;20405;-75
2022/05/16 02:58:46;;;;;;;;;;;;;;;22.73;57.83;100918.47;4924299;29;19979;-75
2022/05/16 03:01:36;;;;;;;;;;;;;;;22.68;57.80;100919.63;4920362;29;20301;-76
2022/05/16 03:04:26;;;;;;;;;;;;;;;22.60;57.74;100926.34;4931579;29;19915;-75
2022/05/16 03:07:16;;;;;;;;;;;;;;;22.65;57.41;100925.19;4939543;29;19918;-75
2022/05/16 03:10:07;;;;;;;;;;;;;;;22.57;57.40;100918.81;4918196;29;19919;-75
2022/05/16 03:12:56;;;;;;;;;;;;;;;22.49;57.27;100920.78;4923465;29;19915;-75
2022/05/16 03:15:46;;;;;;;;;;;;;;;22.45;57.24;100927.50;4937537;29;21176;-75
2022/05/16 03:18:36;;;;;;;;;;;;;;;22.43;57.12;100922.34;4939361;29;19914;-75
2022/05/16 03:21:26;;;;;;;;;;;;;;;22.35;57.74;100923.47;4923192;29;19915;-75
2022/05/16 03:24:15;;;;;;;;;;;;;;;22.34;57.85;100926.66;4932080;29;19915;-75
2022/05/16 03:27:05;;;;;;;;;;;;;;;22.20;58.93;100921.06;4932839;29;19915;-75
2022/05/16 03:29:56;;;;;;;;;;;;;;;21.93;59.66;100923.25;4924639;29;19915;-75
2022/05/16 03:32:46;;;;;;;;;;;;;;;22.03;59.00;100923.34;4926884;29;19923;-75
2022/05/16 03:35:35;;;;;;;;;;;;;;;21.98;59.19;100923.72;4926831;29;19923;-75
2022/05/16 03:41:35;;;;;;;;;;;;;;;21.61;60.19;100917.50;4932542;29;19922;-75
2022/05/16 03:44:25;;;;;;;;;;;;;;;21.64;60.26;100923.06;4926541;29;19918;-75
2022/05/16 03:47:14;;;;;;;;;;;;;;;21.71;59.86;100917.59;4931476;29;19918;-75
2022/05/16 03:50:05;;;;;;;;;;;;;;;21.67;60.43;100918.75;4925488;29;19922;-76
2022/05/16 03:52:59;;;;;;;;;;;;;;;21.66;60.44;100919.91;4927530;29;19915;-75
2022/05/16 03:55:50;;;;;;;;;;;;;;;21.73;60.36;100929.06;4926173;29;19919;-75
2022/05/16 03:58:42;;;;;;;;;;;;;;;21.88;59.68;100929.97;4931152;29;19914;-75
2022/05/16 04:01:32;;;;;;;;;;;;;;;21.87;59.39;100935.88;4922986;29;19915;-75
2022/05/16 04:04:22;;;;;;;;;;;;;;;21.96;59.15;100937.16;4924543;29;20398;-75
2022/05/16 04:07:12;;;;;;;;;;;;;;;21.86;59.65;100939.81;4936805;28;19915;-74
2022/05/16 04:10:01;;;;;;;;;;;;;;;21.86;60.11;100945.34;4927631;29;19915;-75
2022/05/16 04:12:51;;;;;;;;;;;;;;;21.90;60.21;100940.63;4934379;28;19915;-75
2022/05/16 04:15:40;;;;;;;;;;;;;;;21.94;60.25;100947.81;4923377;29;19919;-75
2022/05/16 04:18:31;;;;;;;;;;;;;;;22.01;60.13;100953.41;4929341;29;19914;-75
2022/05/16 04:21:21;;;;;;;;;;;;;;;21.95;60.51;100954.94;4923271;29;19923;-75
2022/05/16 04:24:10;;;;;;;;;;;;;;;21.92;60.74;100955.69;4922064;29;19918;-75
2022/05/16 04:27:01;;;;;;;;;;;;;;;21.94;60.73;100953.34;4926196;29;20304;-75
2022/05/16 04:29:51;;;;;;;;;;;;;;;21.86;61.05;100956.44;4924785;29;19914;-75
2022/05/16 04:32:41;;;;;;;;;;;;;;;21.73;61.18;100959.53;4936709;29;19915;-75
2022/05/16 04:35:31;;;;;;;;;;;;;;;21.80;61.25;100957.97;4931385;29;19915;-75
2022/05/16 04:38:21;;;;;;;;;;;;;;;21.85;60.96;100961.19;4927950;29;19919;-75
2022/05/16 04:44:17;;;;;;;;;;;;;;;22.33;59.47;100961.88;4934736;29;19918;-75
2022/05/16 04:47:07;;;;;;;;;;;;;;;22.37;59.36;100968.22;4920342;28;19915;-74
2022/05/16 04:49:57;;;;;;;;;;;;;;;22.37;59.58;100971.00;4933924;29;20305;-74
2022/05/16 04:52:46;;;;;;;;;;;;;;;22.53;59.04;100977.00;4934813;29;19923;-75
2022/05/16 04:55:36;;;;;;;;;;;;;;;22.59;58.83;100977.44;4926601;29;19919;-75
2022/05/16 04:58:25;;;;;;;;;;;;;;;22.61;58.78;100986.13;4930989;29;19914;-75
2022/05/16 05:01:15;;;;;;;;;;;;;;;22.67;58.60;100983.78;4930557;29;19930;-74
2022/05/16 05:04:04;;;;;;;;;;;;;;;22.80;58.26;100988.63;4929385;29;19919;-74
2022/05/16 05:06:55;;;;;;;;;;;;;;;23.00;57.86;100991.84;4923580;29;19915;-76
2022/05/16 05:16:10;;;;;;;;;;;;;;;23.25;56.88;101003.78;4930510;29;20317;-75
2022/05/16 05:19:00;;;;;;;;;;;;;;;23.17;57.84;101007.72;4928769;29;19915;-75
2022/05/16 05:21:50;;;;;;;;;;;;;;;23.30;57.02;101010.94;4924858;29;19918;-75
2022/05/16 05:24:41;;;;;;;;;;;;;;;23.38;57.11;101018.06;4931397;28;19915;-75
2022/05/16 05:27:32;;;;;;;;;;;;;;;23.40;57.25;101018.47;4929591;29;19915;-75
2022/05/16 05:30:25;;;;;;;;;;;;;;;23.44;57.42;101022.84;4931279;29;20292;-75
2022/05/16 05:33:15;;;;;;;;;;;;;;;23.21;57.54;101024.41;4928374;28;19915;-76
2022/05/16 05:36:08;;;;;;;;;;;;;;;23.11;57.96;101014.84;4917335;29;19919;-76
2022/05/16 05:38:58;;;;;;;;;;;;;;;23.17;58.52;101027.16;4927042;29;19915;-80
2022/05/16 05:41:49;;;;;;;;;;;;;;;23.12;59.23;101019.22;4931223;29;19914;-78
2022/05/16 05:44:39;;;;;;;;;;;;;;;23.08;60.02;101025.94;4917726;29;19919;-77
2022/05/16 05:47:31;;;;;;;;;;;;;;;23.07;59.32;101027.91;4928746;28;19915;-78
2022/05/16 05:50:20;;;;;;;;;;;;;;;23.12;59.16;101027.53;4921935;28;19918;-77
2022/05/16 05:53:10;;;;;;;;;;;;;;;23.12;59.36;101026.75;4932218;29;19915;-77
2022/05/16 05:56:00;;;;;;;;;;;;;;;23.22;58.94;101031.50;4924882;29;19918;-77
2022/05/16 05:58:50;;;;;;;;;;;;;;;23.30;58.96;101017.28;4930224;29;19915;-77
2022/05/16 06:01:39;;;;;;;;;;;;;;;23.34;58.98;101011.72;4922575;29;20389;-77
2022/05/16 06:04:28;;;;;;;;;;;;;;;23.47;58.11;101021.28;4922630;29;19915;-78
2022/05/16 06:07:18;;;;;;;;;;;;;;;23.59;57.77;101028.44;4925886;29;20313;-75
2022/05/16 06:10:08;;;;;;;;;;;;;;;23.68;57.26;101026.84;4925667;29;20114;-77
2022/05/16 06:12:58;;;;;;;;;;;;;;;23.78;56.91;101028.81;4919027;29;19915;-77
2022/05/16 06:15:47;;;;;;;;;;;;;;;23.82;56.50;101032.38;4929869;29;20296;-77
2022/05/16 06:18:37;;;;;;;;;;;;;;;23.92;55.98;101035.59;4925205;29;19915;-77
2022/05/16 06:21:27;;;;;;;;;;;;;;;23.94;55.53;101038.75;4926085;29;19915;-77
2022/05/16 06:27:23;;;;;;;;;;;;;;;23.97;54.72;101038.75;4931262;29;19914;-77
2022/05/16 06:30:13;;;;;;;;;;;;;;;23.98;53.96;101028.41;4930767;29;19915;-78
2022/05/16 06:33:04;;;;;;;;;;;;;;;24.05;54.12;101031.19;4919505;29;19915;-77
2022/05/16 06:35:54;;;;;;;;;;;;;;;25.11;51.49;101033.66;4919158;29;19922;-78
2022/05/16 06:38:44;;;;;;;;;;;;;;;25.96;49.23;101039.38;4926513;29;19919;-78
2022/05/16 06:41:34;;;;;;;;;;;;;;;26.61;47.47;101043.13;4933494;28;19915;-78
2022/05/16 06:44:24;;;;;;;;;;;;;;;26.97;46.20;101035.09;4925056;29;19915;-78
2022/05/16 06:47:14;;;;;;;;;;;;;;;27.15;45.64;101041.25;4919381;29;19923;-78
2022/05/16 06:50:04;;;;;;;;;;;;;;;27.12;45.37;101041.31;4927694;29;19922;-78
2022/05/16 06:52:53;;;;;;;;;;;;;;;27.76;44.19;101041.13;4918354;29;19915;-78
2022/05/16 06:55:43;;;;;;;;;;;;;;;28.18;43.17;101036.03;4929458;28;19923;-78
2022/05/16 06:58:32;;;;;;;;;;;;;;;28.95;41.27;101032.91;4930734;28;19915;-78
2022/05/16 07:01:22;;;;;;;;;;;;;;;29.95;39.35;101043.38;4934809;29;19914;-78
2022/05/16 07:04:12;;;;;;;;;;;;;;;31.46;36.29;101050.66;4933828;29;19915;-78
2022/05/16 07:07:04;;;;;;;;;;;;;;;32.48;33.96;101046.38;4932201;29;19918;-77
2022/05/16 07:09:53;;;;;;;;;;;;;;;32.07;33.96;101042.56;4916719;29;19919;-80
2022/05/16 07:12:44;;;;;;;;;;;;;;;29.45;38.93;101047.38;4920962;28;20385;-80
2022/05/16 07:15:34;;;;;;;;;;;;;;;28.23;42.28;101044.72;4935541;29;20297;-80
2022/05/16 07:18:25;;;;;;;;;;;;;;;27.47;44.13;101045.56;4925461;29;19923;-82
2022/05/16 07:21:15;;;;;;;;;;;;;;;26.95;45.27;101043.13;4934602;29;19918;-82
2022/05/16 07:24:05;;;;;;;;;;;;;;;26.54;46.78;101048.00;4927328;29;19915;-82
2022/05/16 07:30:01;;;;;;;;;;;;;;;26.17;47.98;101060.69;4916611;29;19915;-81
2022/05/16 07:32:50;;;;;;;;;;;;;;;26.09;48.40;101058.41;4933076;29;19937;-81
2022/05/16 07:35:40;;;;;;;;;;;;;;;26.07;48.47;101050.44;4930814;28;19915;-81
2022/05/16 07:38:30;;;;;;;;;;;;;;;26.05;48.78;101063.22;4925988;29;20482;-81
2022/05/16 07:41:19;;;;;;;;;;;;;;;25.89;48.24;101060.97;4938593;28;20392;-81
2022/05/16 07:44:09;;;;;;;;;;;;;;;25.90;48.29;101062.56;4920041;29;19915;-81
2022/05/16 07:46:59;;;;;;;;;;;;;;;25.90;48.64;101062.56;4928307;29;19915;-81
2022/05/16 07:49:48;;;;;;;;;;;;;;;25.85;49.13;101066.56;4924199;28;19919;-81
2022/05/16 07:52:38;;;;;;;;;;;;;;;25.87;48.78;101066.94;4945310;28;20304;-81
2022/05/16 07:55:28;;;;;;;;;;;;;;;25.85;48.19;101068.56;4930778;29;19914;-81
2022/05/16 07:58:20;;;;;;;;;;;;;;;25.85;48.79;101063.00;4936008;29;20297;-82
2022/05/16 08:01:10;;;;;;;;;;;;;;;25.90;48.78;101062.56;4933969;29;19914;-81
2022/05/16 08:03:59;;;;;;;;;;;;;;;25.93;48.96;101064.50;4935975;29;19914;-81
2022/05/16 08:06:49;;;;;;;;;;;;;;;25.95;48.91;101060.13;4936888;29;19915;-81
2022/05/16 08:12:44;;;;;;;;;;;;;;;25.88;49.01;101070.53;4929445;29;19915;-81
2022/05/16 08:15:34;;;;;;;;;;;;;;;25.91;48.61;101072.47;4935360;29;20293;-81
2022/05/16 08:18:24;;;;;;;;;;;;;;;25.87;48.99;101077.31;4929824;29;19919;-82
2022/05/16 08:21:14;;;;;;;;;;;;;;;25.86;48.87;101073.72;4934010;29;19914;-81
2022/05/16 08:24:08;;;;;;;;;;;;;;;25.92;48.34;101076.88;4933714;29;19915;-81
2022/05/16 08:26:57;;;;;;;;;;;;;;;26.03;47.92;101072.00;4934674;29;20402;-81
2022/05/16 08:29:47;;;;;;;;;;;;;;;26.14;47.64;101071.91;4963141;23;19922;-79
2022/05/16 08:32:37;;;;;;;;;;;;;;;26.21;47.64;101066.25;4951904;28;20288;-80
2022/05/16 08:35:27;;;;;;;;;;;;;;;26.30;47.23;101064.59;4955038;28;20323;-79
2022/05/16 08:41:30;;;;;;;;;;;;;;;26.42;47.23;101066.06;4954266;28;19914;-77
2022/05/16 08:44:22;;;;;;;;;;;;;;;26.54;46.71;101059.16;4950357;28;19918;-79
2022/05/16 08:47:11;;;;;;;;;;;;;;;26.64;46.57;101061.03;4947633;28;19914;-76
2022/05/16 08:50:06;;;;;;;;;;;;;;;26.66;46.19;101061.41;4951743;28;19914;-78
2022/05/16 08:53:00;;;;;;;;;;;;;;;26.73;46.23;101059.31;4951412;28;19914;-79
2022/05/16 08:55:51;;;;;;;;;;;;;;;26.78;46.29;101053.28;4956834;28;20378;-78
2022/05/16 08:58:44;;;;;;;;;;;;;;;26.80;46.08;101064.03;4945468;28;19918;-77
2022/05/16 09:01:49;;;;;;;;;;;;;;;26.89;46.07;101058.75;4953055;28;19914;-80
2022/05/16 09:05:07;;;;;;;;;;;;;;;26.86;46.88;101061.56;4968456;28;19915;-79
2022/05/16 09:07:58;;;;;;;;;;;;;;;26.86;46.60;101056.78;4941978;28;19918;-79
2022/05/16 09:10:55;;;;;;;;;;;;;;;26.97;46.56;101051.84;4956236;28;19915;-79
2022/05/16 09:14:04;;;;;;;;;;;;;;;27.05;46.28;101056.16;4940705;29;19919;-78
2022/05/16 09:17:07;;;;;;;;;;;;;;;27.10;45.85;101052.88;4942967;29;20385;-79
2022/05/16 09:20:14;;;;;;;;;;;;;;;27.20;45.99;101060.31;4950990;28;19914;-78
2022/05/16 09:23:10;;;;;;;;;;;;;;;27.20;45.79;101059.53;4937674;28;19918;-79
2022/05/16 09:26:03;;;;;;;;;;;;;;;27.32;45.85;101053.38;4945896;28;19919;-79
2022/05/16 09:28:57;;;;;;;;;;;;;;;27.48;45.85;101056.31;4951909;28;19914;-77
2022/05/16 09:31:49;;;;;;;;;;;;;;;27.57;45.26;101047.44;4949949;28;19922;-78
2022/05/16 09:34:38;;;;;;;;;;;;;;;27.57;45.32;101039.06;4953917;28;19914;-77
2022/05/16 09:37:28;;;;;;;;;;;;;;;27.69;45.87;101046.03;4963977;28;19919;-79
2022/05/16 09:40:21;;;;;;;;;;;;;;;27.71;45.67;101041.63;4955204;28;19914;-79
2022/05/16 09:43:20;;;;;;;;;;;;;;;27.70;45.23;101045.63;4948662;28;19915;-77
2022/05/16 09:46:19;;;;;;;;;;;;;;;27.81;44.86;101037.84;4956803;28;19918;-78
2022/05/16 09:49:19;;;;;;;;;;;;;;;27.95;44.97;101042.41;4948281;28;20354;-78
2022/05/16 09:52:16;;;;;;;;;;;;;;;28.02;44.50;101037.50;4957113;28;20372;-79
2022/05/16 09:55:12;;;;;;;;;;;;;;;28.13;44.93;101036.53;4952858;28;19914;-78
2022/05/16 09:58:04;;;;;;;;;;;;;;;28.16;44.16;101027.28;4944260;29;19918;-77
2022/05/16 10:00:56;;;;;;;;;;;;;;;28.14;43.74;101026.94;4942405;29;19926;-78
2022/05/16 10:03:49;;;;;;;;;;;;;;;28.21;44.40;101026.78;4950899;29;19914;-79
2022/05/16 10:06:41;;;;;;;;;;;;;;;28.48;44.21;101024.66;4949727;28;19914;-79
2022/05/16 10:09:33;;;;;;;;;;;;;;;28.50;43.81;101027.81;4944765;28;19915;-79
2022/05/16 10:12:27;;;;;;;;;;;;;;;28.50;43.64;101022.19;4939782;29;19914;-76
2022/05/16 10:15:17;;;;;;;;;;;;;;;28.54;43.38;101019.34;4947589;28;19919;-76
2022/05/16 10:18:09;;;;;;;;;;;;;;;28.63;43.53;101019.56;4951736;28;19923;-76
2022/05/16 10:21:06;;;;;;;;;;;;;;;28.54;43.46;101016.56;4948464;29;20308;-77
2022/05/16 10:23:56;;;;;;;;;;;;;;;28.67;43.17;101020.25;4948922;29;20309;-79
2022/05/16 10:26:48;;;;;;;;;;;;;;;28.45;43.43;101019.91;4957776;28;19914;-77
2022/05/16 10:29:43;;;;;;;;;;;;;;;28.58;43.26;101006.06;4932854;29;20316;-74
2022/05/16 10:35:50;;;;;;;;;;;;;;;28.65;42.79;100994.75;4951108;28;19918;-75
2022/05/16 10:38:54;;;;;;;;;;;;;;;28.67;42.96;100995.88;4957540;28;19934;-75
2022/05/16 10:41:52;;;;;;;;;;;;;;;28.69;42.00;100987.84;4948355;28;19918;-75
2022/05/16 10:44:58;;;;;;;;;;;;;;;28.70;41.67;100986.59;4953850;28;20284;-75
2022/05/16 10:47:58;;;;;;;;;;;;;;;28.83;42.19;100990.34;4944983;28;20384;-75
2022/05/16 10:51:09;;;;;;;;;;;;;;;28.88;41.78;100987.03;4962697;28;19915;-74
2022/05/16 10:54:06;;;;;;;;;;;;;;;28.90;41.00;100984.56;4949769;28;19914;-74
2022/05/16 10:57:17;;;;;;;;;;;;;;;29.03;40.30;100979.09;4952683;28;20297;-74
2022/05/16 11:00:11;;;;;;;;;;;;;;;29.10;39.84;100989.34;4944073;28;19914;-74
2022/05/16 11:03:22;;;;;;;;;;;;;;;29.08;40.66;100983.38;4951152;28;19915;-74
2022/05/16 11:06:28;;;;;;;;;;;;;;;29.05;39.65;100973.06;4948704;28;20377;-74
2022/05/16 11:09:36;;;;;;;;;;;;;;;29.16;38.46;100962.38;4945038;28;19918;-74
2022/05/16 11:12:39;;;;;;;;;;;;;;;29.16;38.41;100962.38;4939124;28;19915;-74
2022/05/16 11:15:38;;;;;;;;;;;;;;;29.29;37.80;100960.47;4950112;28;19915;-74
2022/05/16 11:18:35;;;;;;;;;;;;;;;29.28;37.22;100953.28;4961453;28;19922;-75
2022/05/16 11:21:24;;;;;;;;;;;;;;;29.21;36.37;100947.84;4936843;28;19915;-74
2022/05/16 11:24:29;;;;;;;;;;;;;;;29.35;36.82;100943.97;4948861;28;20281;-75
2022/05/16 11:27:34;;;;;;;;;;;;;;;29.47;36.53;100943.22;4946705;28;19922;-75
2022/05/16 11:30:27;;;;;;;;;;;;;;;29.57;35.05;100942.16;4948376;28;19914;-75
2022/05/16 11:33:36;;;;;;;;;;;;;;;29.58;35.55;100944.53;4960346;28;19915;-75
2022/05/16 11:36:39;;;;;;;;;;;;;;;29.48;33.05;100928.78;4943468;28;19915;-75
2022/05/16 11:39:34;;;;;;;;;;;;;;;29.58;33.40;100936.13;4947836;28;20392;-74
2022/05/16 11:42:41;;;;;;;;;;;;;;;29.64;33.08;100942.00;4941368;28;19914;-73
2022/05/16 11:45:49;;;;;;;;;;;;;;;29.70;32.31;100927.00;4958320;28;20292;-74
2022/05/16 11:48:44;;;;;;;;;;;;;;;29.71;31.89;100920.16;4939862;28;19914;-74
2022/05/16 11:52:04;;;;;;;;;;;;;;;29.58;31.71;100913.72;4944649;28;19915;-74
2022/05/16 11:55:02;;;;;;;;;;;;;;;29.70;32.40;100915.00;4947530;28;20316;-73
2022/05/16 12:00:58;;;;;;;;;;;;;;;29.81;31.65;100911.91;4956109;28;19989;-76
2022/05/16 12:04:06;;;;;;;;;;;;;;;29.89;30.55;100908.50;4952793;28;20384;-75
2022/05/16 12:07:04;;;;;;;;;;;;;;;29.93;31.43;100911.19;4940146;28;19914;-74
2022/05/16 12:09:58;;;;;;;;;;;;;;;29.81;30.73;100898.69;4949218;28;19922;-74
2022/05/16 12:13:10;;;;;;;;;;;;;;;29.83;31.44;100898.22;4947580;28;19923;-75
2022/05/16 12:16:15;;;;;;;;;;;;;;;29.85;31.26;100901.38;4946361;28;19914;-74
2022/05/16 12:19:14;;;;;;;;;;;;;;;29.92;31.62;100895.63;4939458;28;19923;-75
2022/05/16 12:22:11;;;;;;;;;;;;;;;29.93;29.83;100897.16;4961312;28;19914;-73
2022/05/16 12:25:10;;;;;;;;;;;;;;;30.04;31.02;100894.84;4952313;28;19926;-75
2022/05/16 12:28:19;;;;;;;;;;;;;;;30.06;30.87;100890.38;4942995;28;19918;-74
2022/05/16 12:31:09;;;;;;;;;;;;;;;30.09;31.08;100885.88;4945955;28;20325;-74
2022/05/16 12:34:00;;;;;;;;;;;;;;;30.03;30.38;100887.66;4952520;28;19918;-75
2022/05/16 12:36:50;;;;;;;;;;;;;;;30.07;29.63;100879.97;4951947;28;19918;-76
2022/05/16 12:39:52;;;;;;;;;;;;;;;30.15;29.38;100875.69;4950442;28;19919;-74
2022/05/16 12:42:44;;;;;;;;;;;;;;;30.06;30.24;100872.75;4942684;29;19922;-77
2022/05/16 12:45:34;;;;;;;;;;;;;;;30.04;30.80;100880.81;4942461;29;19915;-75
2022/05/16 12:48:26;;;;;;;;;;;;;;;30.03;30.62;100877.22;4948032;28;19914;-75
2022/05/16 12:51:26;;;;;;;;;;;;;;;30.19;31.25;100873.56;4941830;28;19948;-75
2022/05/16 12:57:30;;;;;;;;;;;;;;;30.38;29.87;100849.34;5442039;23;19928;-80
2022/05/16 13:00:39;;;;;;;;;;;;;;;30.46;30.49;100850.72;4934818;29;19932;-82
2022/05/16 13:03:45;;;;;;;;;;;;;;;30.42;30.83;100850.03;4945152;29;19914;-82
2022/05/16 13:06:45;;;;;;;;;;;;;;;30.46;31.59;100850.72;4958809;28;19914;-82
2022/05/16 13:09:35;;;;;;;;;;;;;;;30.57;30.84;100840.75;4967292;23;20873;-77
2022/05/16 13:12:36;;;;;;;;;;;;;;;30.61;31.85;100825.81;4942956;28;21237;-76
2022/05/16 13:15:29;;;;;;;;;;;;;;;30.70;31.00;100831.53;4953088;28;20412;-76
2022/05/16 13:18:23;;;;;;;;;;;;;;;30.73;31.13;100825.03;4949442;29;19919;-77
2022/05/16 13:21:17;;;;;;;;;;;;;;;30.75;30.83;100820.50;4949754;28;19914;-78
2022/05/16 13:24:12;;;;;;;;;;;;;;;30.53;31.30;100817.59;4949744;28;20291;-76
2022/05/16 13:30:12;;;;;;;;;;;;;;;30.56;30.85;100819.53;4955642;28;19915;-77
2022/05/16 13:33:02;;;;;;;;;;;;;;;30.59;31.35;100820.63;4947972;29;19914;-75
2022/05/16 13:35:51;;;;;;;;;;;;;;;30.44;31.55;100811.06;4955512;29;19914;-78
2022/05/16 13:38:41;;;;;;;;;;;;;;;30.44;31.39;100813.88;4950698;28;19918;-76
2022/05/16 13:41:32;;;;;;;;;;;;;;;30.49;31.19;100802.09;4942077;29;19915;-78
2022/05/16 13:44:22;;;;;;;;;;;;;;;30.35;31.42;100797.72;4954206;28;20314;-76
2022/05/16 13:47:14;;;;;;;;;;;;;;;30.22;32.00;100801.75;4946840;29;19940;-76
2022/05/16 13:50:04;;;;;;;;;;;;;;;30.17;32.63;100794.69;4953957;29;19914;-76
2022/05/16 13:52:54;;;;;;;;;;;;;;;30.09;32.12;100790.50;4955442;28;19914;-76
2022/05/16 13:55:44;;;;;;;;;;;;;;;30.14;32.98;100793.53;4950058;28;19914;-78
2022/05/16 13:58:30;;;;;;;;;;;;;;;30.10;32.59;100776.03;4949956;29;19919;-76
2022/05/16 14:01:19;;;;;;;;;;;;;;;30.06;31.15;100777.38;4955098;28;19918;-77
2022/05/16 14:04:09;;;;;;;;;;;;;;;30.09;31.87;100784.91;4966915;28;19969;-77
2022/05/16 14:06:59;;;;;;;;;;;;;;;30.07;31.60;100778.97;4957810;28;19914;-78
2022/05/16 14:09:50;;;;;;;;;;;;;;;30.10;31.87;100772.44;4958953;28;20363;-78
2022/05/16 14:12:38;;;;;;;;;;;;;;;30.08;31.42;100777.72;4975382;28;19918;-78
2022/05/16 14:15:26;;;;;;;;;;;;;;;30.08;31.34;100770.09;4955048;28;19914;-78
2022/05/16 14:18:13;;;;;;;;;;;;;;;30.06;31.86;100766.97;4944427;28;19918;-78
2022/05/16 14:21:12;;;;;;;;;;;;;;;29.95;30.99;100765.69;4944098;29;19919;-78
2022/05/16 14:24:09;;;;;;;;;;;;;;;29.96;32.24;100764.47;4945611;29;20402;-78
2022/05/16 14:26:56;;;;;;;;;;;;;;;30.00;30.74;100751.91;4945879;29;19914;-78
2022/05/16 14:29:40;;;;;;;;;;;;;;;30.01;30.89;100759.09;4956919;28;19914;-77
2022/05/16 14:32:25;;;;;;;;;;;;;;;29.99;31.36;100766.38;4952795;29;20355;-77
2022/05/16 14:35:13;;;;;;;;;;;;;;;29.87;31.38;100759.47;4947434;29;19914;-77
2022/05/16 14:38:01;;;;;;;;;;;;;;;29.79;31.15;100754.53;4950812;29;20106;-77
2022/05/16 14:40:48;;;;;;;;;;;;;;;29.83;31.67;100758.03;4945710;28;20403;-77
2022/05/16 14:43:37;;;;;;;;;;;;;;;29.84;32.31;100759.59;4952200;29;19914;-77
2022/05/16 14:46:44;;;;;;;;;;;;;;;29.85;32.16;100761.16;4954391;29;19914;-77
2022/05/16 14:49:29;;;;;;;;;;;;;;;29.74;32.62;100762.28;4950946;29;19914;-78
2022/05/16 14:52:15;;;;;;;;;;;;;;;29.76;32.44;100756.22;4949966;28;19915;-75
2022/05/16 14:55:09;;;;;;;;;;;;;;;29.79;31.72;100757.34;4954066;28;20302;-77
2022/05/16 14:57:53;;;;;;;;;;;;;;;29.77;32.01;100752.97;4957615;28;19919;-76
2022/05/16 15:06:46;;;;;;;;;;;;;;;29.80;32.11;100758.91;4946747;28;19914;-75
2022/05/16 15:09:31;;;;;;;;;;;;;;;29.77;32.01;100769.78;4950160;28;19919;-76
2022/05/16 15:12:16;;;;;;;;;;;;;;;29.77;31.52;100772.59;4949684;29;19914;-78
2022/05/16 15:15:02;;;;;;;;;;;;;;;29.76;32.21;100765.41;4942558;28;19915;-77
2022/05/16 15:17:46;;;;;;;;;;;;;;;29.79;31.75;100772.16;4951093;28;19918;-77
2022/05/16 15:20:31;;;;;;;;;;;;;;;29.79;32.18;100769.34;4946150;29;19914;-77
2022/05/16 15:23:18;;;;;;;;;;;;;;;29.81;32.17;100768.91;4951596;29;19918;-77
2022/05/16 15:26:02;;;;;;;;;;;;;;;29.74;31.94;100767.88;4949146;29;19915;-77
2022/05/16 15:28:47;;;;;;;;;;;;;;;29.78;32.90;100759.34;4948284;29;19922;-76
2022/05/16 15:31:31;;;;;;;;;;;;;;;29.80;31.65;100761.72;4940904;28;19915;-76
2022/05/16 15:34:16;;;;;;;;;;;;;;;29.79;31.94;100765.75;4949760;29;19914;-76
2022/05/16 15:37:02;;;;;;;;;;;;;;;29.78;31.55;100770.56;4958022;28;19914;-76
2022/05/16 15:39:49;;;;;;;;;;;;;;;29.68;32.09;100763.25;4948959;28;19919;-78